createdAt,value
2022-11-24T00:04:43.586Z,48.00
2022-11-24T00:09:50.705Z,51.80
2022-11-24T00:14:57.732Z,52.40
2022-11-24T00:20:06.057Z,47.20
2022-11-24T00:25:13.324Z,47.70
2022-11-24T00:30:20.479Z,46.50
2022-11-24T00:35:27.482Z,46.40
2022-11-24T00:40:35.187Z,45.90
2022-11-24T00:45:43.155Z,48.50
2022-11-24T00:56:05.974Z,47.20
2022-11-24T01:01:16.631Z,44.30
2022-11-24T01:06:25.331Z,44.20
2022-11-24T01:11:55.877Z,41.60
2022-11-24T01:17:02.927Z,39.80
2022-11-24T01:22:10.077Z,41.50
2022-11-24T01:27:17.184Z,50.00
2022-11-24T01:32:24.242Z,48.90
2022-11-24T01:37:31.317Z,51.50
2022-11-24T01:42:47.723Z,46.50
2022-11-24T01:47:54.977Z,45.20
2022-11-24T01:53:02.272Z,47.40
2022-11-24T01:58:14.548Z,46.00
2022-11-24T02:03:25.705Z,46.60
2022-11-24T02:08:40.709Z,50.80
2022-11-24T02:13:49.236Z,46.40
2022-11-24T02:18:56.640Z,49.80
2022-11-24T02:24:11.203Z,49.60
2022-11-24T02:29:18.321Z,45.80
2022-11-24T02:34:25.431Z,49.30
2022-11-24T02:39:32.563Z,47.30
2022-11-24T02:44:43.547Z,47.90
2022-11-24T02:49:50.621Z,47.80
2022-11-24T02:54:57.685Z,46.60
2022-11-24T03:00:05.069Z,44.30
2022-11-24T03:05:13.249Z,44.80
2022-11-24T03:10:20.369Z,47.20
2022-11-24T03:15:27.491Z,43.30
2022-11-24T03:20:34.613Z,43.00
2022-11-24T03:25:41.700Z,47.60
2022-11-24T03:30:50.954Z,45.60
2022-11-24T03:35:58.030Z,44.50
2022-11-24T03:41:05.156Z,40.50
2022-11-24T03:46:13.498Z,45.90
2022-11-24T03:51:20.522Z,47.30
2022-11-24T03:56:28.112Z,50.00
2022-11-24T04:01:35.272Z,50.10
2022-11-24T04:06:43.065Z,48.40
2022-11-24T04:12:08.012Z,42.00
2022-11-24T04:17:15.148Z,45.60
2022-11-24T04:22:22.210Z,44.30
2022-11-24T04:27:29.424Z,48.30
2022-11-24T04:32:36.625Z,45.40
2022-11-24T04:37:43.726Z,48.80
2022-11-24T04:42:56.787Z,47.30
2022-11-24T04:48:07.232Z,43.60
2022-11-24T04:53:14.711Z,43.30
2022-11-24T04:58:21.757Z,40.10
2022-11-24T05:03:28.905Z,50.70
2022-11-24T05:08:36.063Z,49.60
2022-11-24T05:13:43.268Z,43.00
2022-11-24T05:18:50.429Z,43.70
2022-11-24T05:23:57.389Z,43.80
2022-11-24T05:29:04.592Z,44.60
2022-11-24T05:34:12.317Z,46.00
2022-11-24T05:39:20.065Z,45.10
2022-11-24T05:44:27.171Z,53.40
2022-11-24T05:49:34.352Z,50.80
2022-11-24T05:54:41.465Z,49.10
2022-11-24T05:59:48.413Z,49.60
2022-11-24T06:04:55.341Z,51.50
2022-11-24T06:10:02.395Z,52.80
2022-11-24T06:15:11.392Z,55.80
2022-11-24T06:20:18.544Z,48.50
2022-11-24T06:25:26.533Z,49.50
2022-11-24T06:30:33.667Z,45.70
2022-11-24T06:35:40.729Z,50.20
2022-11-24T06:40:48.004Z,50.90
2022-11-24T06:45:55.550Z,46.40
2022-11-24T06:51:03.804Z,46.70
2022-11-24T06:56:16.281Z,51.00
2022-11-24T07:01:25.956Z,50.20
2022-11-24T07:06:34.177Z,47.50
2022-11-24T07:11:41.982Z,50.50
2022-11-24T07:16:51.379Z,45.60
2022-11-24T07:21:58.297Z,49.00
2022-11-24T07:27:05.286Z,48.60
2022-11-24T07:32:12.301Z,51.60
2022-11-24T07:37:19.414Z,50.10
2022-11-24T07:42:26.486Z,51.20
2022-11-24T07:47:33.391Z,50.00
2022-11-24T07:52:40.591Z,44.80
2022-11-24T07:57:50.107Z,42.60
2022-11-24T08:02:57.456Z,44.80
2022-11-24T08:08:05.272Z,50.30
2022-11-24T08:13:12.240Z,53.70
2022-11-24T08:18:29.482Z,52.50
2022-11-24T08:23:36.930Z,55.70
2022-11-24T08:28:44.398Z,54.40
2022-11-24T08:33:52.354Z,44.90
2022-11-24T08:44:05.837Z,47.90
2022-11-24T08:49:14.262Z,55.60
2022-11-24T08:54:21.925Z,51.30
2022-11-24T08:59:29.098Z,47.90
2022-11-24T09:04:36.501Z,50.10
2022-11-24T09:09:43.747Z,48.90
2022-11-24T09:14:50.711Z,51.00
2022-11-24T09:19:57.712Z,43.20
2022-11-24T09:25:06.038Z,47.10
2022-11-24T09:30:15.724Z,50.00
2022-11-24T09:35:22.678Z,47.90
2022-11-24T09:40:35.935Z,47.30
2022-11-24T09:46:05.381Z,47.10
2022-11-24T09:51:16.574Z,46.00
2022-11-24T09:56:43.704Z,52.30
2022-11-24T10:01:52.253Z,50.70
2022-11-24T10:07:13.362Z,50.70
2022-11-24T10:12:51.429Z,45.00
2022-11-24T10:18:21.231Z,49.10
2022-11-24T10:24:01.116Z,50.00
2022-11-24T10:29:22.610Z,49.70
2022-11-24T10:34:42.329Z,46.30
2022-11-24T10:40:33.505Z,51.70
2022-11-24T10:45:45.684Z,55.50
2022-11-24T10:51:24.720Z,52.70
2022-11-24T10:56:48.133Z,54.10
2022-11-24T11:01:56.407Z,51.90
2022-11-24T11:07:20.955Z,57.70
2022-11-24T11:13:01.973Z,55.40
2022-11-24T11:18:34.512Z,53.90
2022-11-24T11:23:54.357Z,57.80
2022-11-24T11:34:38.518Z,53.50
2022-11-24T11:39:49.023Z,54.20
2022-11-24T11:45:00.590Z,55.90
2022-11-24T11:50:14.552Z,48.90
2022-11-24T11:55:50.890Z,53.50
2022-11-24T12:01:07.462Z,59.40
2022-11-24T12:06:30.050Z,52.80
2022-11-24T12:11:44.382Z,54.80
2022-11-24T12:17:02.396Z,49.20
2022-11-24T12:22:20.709Z,53.20
2022-11-24T12:27:39.167Z,53.30
2022-11-24T12:33:12.984Z,56.90
2022-11-24T12:38:33.865Z,56.30
2022-11-24T12:43:43.474Z,54.90
2022-11-24T12:49:02.734Z,56.90
2022-11-24T12:54:16.937Z,55.50
2022-11-24T12:59:35.390Z,53.20
2022-11-24T13:04:48.441Z,58.90
2022-11-24T13:10:54.338Z,56.50
2022-11-24T13:22:01.241Z,55.10
2022-11-24T13:27:44.348Z,55.70
2022-11-24T13:33:03.259Z,59.10
2022-11-24T13:38:43.279Z,56.90
2022-11-24T13:44:22.826Z,60.60
2022-11-24T13:49:42.630Z,62.50
2022-11-24T13:54:49.826Z,66.30
2022-11-24T14:00:03.960Z,71.80
2022-11-24T14:05:16.105Z,64.60
2022-11-24T14:10:28.137Z,66.10
2022-11-24T14:15:36.691Z,62.80
2022-11-24T14:20:43.853Z,71.80
2022-11-24T14:25:52.906Z,70.20
2022-11-24T14:31:11.026Z,70.50
2022-11-24T14:36:19.349Z,69.50
2022-11-24T14:41:30.418Z,63.00
2022-11-24T14:46:37.894Z,72.70
2022-11-24T14:51:51.704Z,71.10
2022-11-24T14:57:09.937Z,74.60
2022-11-24T15:02:46.460Z,69.90
2022-11-24T15:08:02.876Z,68.10
2022-11-24T15:13:23.213Z,65.70
2022-11-24T15:18:42.630Z,69.10
2022-11-24T15:24:07.545Z,78.00
2022-11-24T15:29:15.431Z,68.70
2022-11-24T15:39:30.184Z,67.00
2022-11-24T15:44:37.486Z,67.60
2022-11-24T15:49:45.832Z,63.80
2022-11-24T15:54:57.366Z,61.80
2022-11-24T16:00:05.352Z,65.20
2022-11-24T16:05:19.759Z,63.40
2022-11-24T16:10:31.056Z,64.00
2022-11-24T16:15:38.325Z,61.20
2022-11-24T16:20:45.486Z,67.30
2022-11-24T16:25:52.680Z,63.20
2022-11-24T16:30:59.694Z,65.60
2022-11-24T16:36:07.291Z,64.30
2022-11-24T16:41:14.607Z,58.10
2022-11-24T16:46:23.767Z,64.30
2022-11-24T16:51:34.942Z,65.40
2022-11-24T16:56:42.715Z,63.20
2022-11-24T17:01:50.894Z,61.90
2022-11-24T17:06:59.651Z,62.90
2022-11-24T17:12:07.103Z,61.70
2022-11-24T17:17:14.297Z,61.70
2022-11-24T17:22:21.307Z,65.20
2022-11-24T17:27:28.802Z,61.00
2022-11-24T17:32:36.029Z,59.30
2022-11-24T17:37:43.178Z,62.50
2022-11-24T17:42:50.297Z,57.70
2022-11-24T17:47:57.616Z,56.90
2022-11-24T17:53:05.199Z,58.70
2022-11-24T17:58:12.281Z,62.00
2022-11-24T18:03:19.459Z,60.00
2022-11-24T18:08:50.583Z,58.00
2022-11-24T18:14:12.831Z,57.00
2022-11-24T18:26:09.484Z,56.50
2022-11-24T18:31:21.072Z,57.40
2022-11-24T18:36:30.593Z,54.70
2022-11-24T18:41:38.557Z,55.20
2022-11-24T18:46:46.324Z,52.00
2022-11-24T18:51:53.834Z,54.70
2022-11-24T18:57:03.574Z,56.90
2022-11-24T19:02:28.354Z,53.40
2022-11-24T19:08:09.580Z,55.50
2022-11-24T19:13:35.389Z,55.60
2022-11-24T19:28:08.779Z,54.80
2022-11-24T19:33:29.052Z,53.60
2022-11-24T19:39:19.896Z,56.90
2022-11-24T19:44:36.393Z,59.10
2022-11-24T19:49:43.634Z,54.50
2022-11-24T19:54:50.577Z,57.10
2022-11-24T19:59:57.567Z,52.20
2022-11-24T20:05:07.049Z,55.70
2022-11-24T20:10:15.488Z,53.20
2022-11-24T20:15:22.399Z,51.30
2022-11-24T20:20:30.486Z,56.50
2022-11-24T20:30:46.104Z,53.50
2022-11-24T20:35:55.612Z,53.50
2022-11-24T20:41:09.388Z,50.40
2022-11-24T20:46:22.389Z,53.60
2022-11-24T20:51:31.521Z,51.00
2022-11-24T20:56:41.133Z,53.10
2022-11-24T21:01:50.310Z,50.80
2022-11-24T21:06:57.808Z,48.50
2022-11-24T21:12:05.104Z,45.90
2022-11-24T21:17:15.121Z,52.60
2022-11-24T21:22:22.122Z,49.40
2022-11-24T21:27:29.574Z,50.30
2022-11-24T21:32:37.048Z,49.80
2022-11-24T21:37:44.314Z,44.10
2022-11-24T21:42:51.548Z,44.70
2022-11-24T21:48:00.503Z,44.80
2022-11-24T21:53:09.662Z,45.20
2022-11-24T21:58:16.721Z,43.80
2022-11-24T22:03:27.187Z,43.40
2022-11-24T22:08:34.444Z,47.50
2022-11-24T22:13:42.024Z,51.50
2022-11-24T22:18:49.260Z,45.60
2022-11-24T22:23:56.241Z,43.60
2022-11-24T22:29:03.367Z,40.70
2022-11-24T22:34:10.622Z,42.10
2022-11-24T22:39:17.845Z,39.60
2022-11-24T22:44:24.780Z,44.20
2022-11-24T22:49:31.749Z,42.60
2022-11-24T22:54:38.747Z,37.60
2022-11-24T22:59:45.907Z,38.60
2022-11-24T23:04:52.981Z,37.60
2022-11-24T23:09:59.948Z,39.70
2022-11-24T23:15:08.260Z,38.80
2022-11-24T23:20:17.126Z,38.50
2022-11-24T23:25:26.400Z,39.40
2022-11-24T23:30:35.065Z,43.20
2022-11-24T23:35:42.172Z,40.00
2022-11-24T23:40:49.299Z,39.60
2022-11-24T23:45:56.328Z,37.80
2022-11-24T23:51:08.635Z,43.20
2022-11-24T23:56:18.059Z,45.60
